Terminal Aerodrome Forecast
Issued by NWS

Home | Current Version | Previous Version | Text Only | Print | Product List | Glossary On
Versions: 1 2 3 4 5 6 7 8 9 10 11 12 13
000
FTPQ31 PGUM 032035 AAA
TAFKWA
TAF AMD
PKWA 032035Z 0321/0418 07014KT P6SM VCSH SCT016 SCT040 BKN120
      TEMPO 0321/0401 11015G25KT 5SM SHRA SCT016 BKN025=

USA.gov is the U.S. government's official web portal to all federal, state and local government web resources and services.